createdAt,value
2022-12-26T00:01:09.394Z,11.67
2022-12-26T00:03:37.054Z,11.80
2022-12-26T00:06:05.471Z,11.69
2022-12-26T00:08:32.860Z,11.74
2022-12-26T00:11:01.587Z,11.86
2022-12-26T00:13:39.305Z,11.52
2022-12-26T00:16:10.488Z,11.87
2022-12-26T00:18:38.157Z,11.37
2022-12-26T00:21:05.874Z,11.81
2022-12-26T00:23:33.701Z,11.84
2022-12-26T00:26:05.099Z,12.09
2022-12-26T00:28:32.763Z,12.03
2022-12-26T00:31:03.729Z,11.60
2022-12-26T00:33:31.213Z,11.83
2022-12-26T00:36:02.040Z,11.63
2022-12-26T00:38:29.445Z,11.95
2022-12-26T00:40:56.886Z,11.98
2022-12-26T00:43:25.616Z,11.85
2022-12-26T00:45:53.247Z,11.96
2022-12-26T00:48:20.643Z,11.99
2022-12-26T00:50:48.050Z,11.79
2022-12-26T00:53:15.452Z,12.11
2022-12-26T00:55:43.063Z,12.18
2022-12-26T00:58:10.626Z,12.07
2022-12-26T01:00:39.744Z,12.00
2022-12-26T01:03:08.749Z,12.06
2022-12-26T01:05:36.443Z,12.13
2022-12-26T01:08:21.526Z,12.21
2022-12-26T01:10:51.522Z,12.21
2022-12-26T01:13:18.955Z,11.86
2022-12-26T01:15:50.965Z,11.58
2022-12-26T01:18:19.049Z,11.93
2022-12-26T01:20:46.598Z,12.13
2022-12-26T01:23:14.367Z,12.26
2022-12-26T01:26:17.406Z,12.16
2022-12-26T01:28:29.327Z,12.28
2022-12-26T01:31:02.402Z,12.38
2022-12-26T01:33:29.816Z,11.90
2022-12-26T01:35:57.652Z,12.10
2022-12-26T01:38:25.098Z,12.33
2022-12-26T01:41:12.544Z,12.31
2022-12-26T01:43:49.341Z,11.84
2022-12-26T01:46:20.587Z,12.08
2022-12-26T01:48:48.580Z,12.21
2022-12-26T01:51:17.490Z,12.20
2022-12-26T01:53:48.929Z,12.10
2022-12-26T01:56:21.121Z,12.22
2022-12-26T01:58:53.997Z,12.14
2022-12-26T02:01:26.555Z,11.80
2022-12-26T02:04:11.813Z,11.67
2022-12-26T02:06:41.253Z,11.86
2022-12-26T02:09:10.140Z,11.74
2022-12-26T02:11:41.067Z,11.70
2022-12-26T02:14:09.839Z,11.05
2022-12-26T02:16:40.044Z,11.70
2022-12-26T02:19:24.605Z,11.67
2022-12-26T02:22:09.556Z,12.01
2022-12-26T02:25:02.912Z,12.00
2022-12-26T02:27:44.633Z,12.09
2022-12-26T02:30:40.099Z,12.24
2022-12-26T02:33:30.537Z,12.27
2022-12-26T02:36:18.177Z,12.34
2022-12-26T02:38:54.525Z,12.17
2022-12-26T02:41:34.791Z,12.09
2022-12-26T02:44:32.229Z,12.04
2022-12-26T02:47:11.409Z,12.30
2022-12-26T02:50:10.875Z,12.48
2022-12-26T02:53:07.314Z,12.45
2022-12-26T02:55:57.061Z,12.54
2022-12-26T02:58:48.794Z,12.42
2022-12-26T03:01:41.140Z,12.40
2022-12-26T03:04:32.826Z,12.13
2022-12-26T03:07:22.494Z,12.43
2022-12-26T03:10:22.166Z,12.38
2022-12-26T03:13:13.573Z,12.36
2022-12-26T03:16:04.948Z,12.21
2022-12-26T03:18:59.526Z,12.24
2022-12-26T03:21:27.243Z,12.50
2022-12-26T03:23:57.555Z,12.61
2022-12-26T03:26:41.408Z,12.09
2022-12-26T03:29:29.006Z,11.70
2022-12-26T03:31:56.881Z,12.34
2022-12-26T03:34:25.322Z,12.47
2022-12-26T03:37:07.069Z,12.46
2022-12-26T03:40:01.151Z,12.46
2022-12-26T03:42:56.135Z,12.55
2022-12-26T03:45:50.697Z,12.66
2022-12-26T03:48:42.949Z,11.92
2022-12-26T03:51:32.343Z,12.25
2022-12-26T03:54:26.055Z,12.35
2022-12-26T03:57:13.946Z,12.14
2022-12-26T04:00:05.158Z,12.37
2022-12-26T04:02:51.883Z,12.25
2022-12-26T04:05:38.736Z,12.52
2022-12-26T04:08:32.118Z,12.17
2022-12-26T04:11:21.914Z,12.26
2022-12-26T04:14:12.842Z,12.35
2022-12-26T04:17:01.724Z,11.97
2022-12-26T04:19:45.389Z,12.24
2022-12-26T04:22:36.156Z,11.84
2022-12-26T04:25:48.580Z,12.04
2022-12-26T04:28:35.090Z,12.31
2022-12-26T04:31:26.662Z,12.62
2022-12-26T04:34:17.246Z,12.43
2022-12-26T04:37:08.029Z,12.73
2022-12-26T04:39:55.471Z,12.36
2022-12-26T04:42:42.693Z,12.63
2022-12-26T04:45:14.204Z,12.18
2022-12-26T04:48:01.893Z,12.20
2022-12-26T04:50:28.449Z,12.63
2022-12-26T04:52:58.678Z,12.73
2022-12-26T04:55:27.079Z,12.28
2022-12-26T04:57:54.595Z,12.50
2022-12-26T05:00:25.188Z,12.36
2022-12-26T05:03:16.270Z,12.33
2022-12-26T05:06:06.022Z,12.18
2022-12-26T05:08:54.331Z,12.43
2022-12-26T05:11:22.069Z,12.57
2022-12-26T05:13:49.586Z,12.72
2022-12-26T05:16:35.970Z,12.76
2022-12-26T05:19:21.234Z,12.30
2022-12-26T05:22:06.469Z,12.79
2022-12-26T05:24:53.676Z,12.36
2022-12-26T05:27:39.430Z,12.52
2022-12-26T05:30:08.526Z,12.38
2022-12-26T05:32:55.031Z,12.54
2022-12-26T05:35:22.600Z,12.15
2022-12-26T05:37:50.071Z,12.04
2022-12-26T05:40:17.567Z,11.89
2022-12-26T05:42:47.139Z,12.14
2022-12-26T05:45:14.590Z,12.07
2022-12-26T05:47:48.271Z,12.13
2022-12-26T05:50:18.991Z,12.07
2022-12-26T05:52:46.463Z,11.86
2022-12-26T05:55:13.888Z,12.23
2022-12-26T05:57:41.293Z,12.28
2022-12-26T06:00:14.154Z,11.91
2022-12-26T06:02:43.062Z,11.83
2022-12-26T06:05:11.121Z,12.34
2022-12-26T06:07:38.738Z,12.42
2022-12-26T06:10:07.340Z,12.04
2022-12-26T06:12:35.353Z,12.41
2022-12-26T06:15:02.980Z,12.60
2022-12-26T06:17:30.480Z,12.36
2022-12-26T06:19:59.233Z,12.45
2022-12-26T06:22:26.706Z,12.82
2022-12-26T06:24:54.118Z,12.52
2022-12-26T06:27:21.570Z,12.66
2022-12-26T06:29:48.965Z,12.64
2022-12-26T06:32:16.349Z,12.56
2022-12-26T06:34:43.775Z,12.70
2022-12-26T06:37:12.641Z,12.47
2022-12-26T06:39:40.073Z,12.96
2022-12-26T06:42:07.579Z,12.94
2022-12-26T06:44:34.985Z,12.45
2022-12-26T06:47:03.137Z,12.64
2022-12-26T06:49:32.717Z,12.92
2022-12-26T06:52:00.741Z,12.69
2022-12-26T06:54:29.450Z,13.04
2022-12-26T06:56:56.930Z,12.35
2022-12-26T06:59:24.431Z,12.61
2022-12-26T07:01:51.980Z,12.75
2022-12-26T07:04:19.484Z,12.43
2022-12-26T07:06:46.887Z,12.44
2022-12-26T07:09:16.975Z,12.40
2022-12-26T07:11:47.815Z,12.26
2022-12-26T07:14:16.105Z,12.63
2022-12-26T07:16:45.729Z,12.87
2022-12-26T07:19:14.959Z,12.50
2022-12-26T07:21:43.112Z,12.69
2022-12-26T07:24:15.731Z,13.03
2022-12-26T07:26:43.541Z,13.07
2022-12-26T07:29:12.858Z,13.15
2022-12-26T07:31:40.759Z,13.04
2022-12-26T07:34:09.016Z,12.62
2022-12-26T07:36:36.510Z,12.90
2022-12-26T07:39:04.335Z,13.21
2022-12-26T07:41:49.408Z,13.06
2022-12-26T07:44:18.203Z,12.87
2022-12-26T07:46:46.531Z,13.18
2022-12-26T07:49:14.461Z,12.78
2022-12-26T07:51:42.193Z,13.08
2022-12-26T07:54:11.556Z,12.99
2022-12-26T07:56:39.421Z,13.18
2022-12-26T07:59:06.892Z,13.23
2022-12-26T08:01:35.727Z,13.18
2022-12-26T08:04:03.388Z,12.88
2022-12-26T08:06:30.895Z,12.81
2022-12-26T08:08:58.291Z,13.28
2022-12-26T08:11:26.012Z,12.62
2022-12-26T08:13:53.698Z,13.06
2022-12-26T08:16:21.949Z,13.13
2022-12-26T08:18:50.756Z,12.75
2022-12-26T08:21:18.193Z,12.54
2022-12-26T08:23:48.056Z,12.94
2022-12-26T08:26:20.804Z,12.83
2022-12-26T08:28:48.433Z,13.16
2022-12-26T08:31:16.224Z,13.19
2022-12-26T08:33:43.625Z,13.27
2022-12-26T08:36:13.769Z,13.30
2022-12-26T08:38:41.581Z,13.24
2022-12-26T08:41:09.298Z,12.70
2022-12-26T08:46:24.925Z,13.00
2022-12-26T08:48:52.816Z,12.83
2022-12-26T08:51:23.691Z,12.72
2022-12-26T08:53:52.383Z,12.90
2022-12-26T08:56:22.188Z,12.79
2022-12-26T08:58:49.858Z,13.34
2022-12-26T09:01:19.445Z,12.64
2022-12-26T09:03:47.393Z,13.18
2022-12-26T09:06:16.199Z,13.00
2022-12-26T09:08:44.988Z,13.12
2022-12-26T09:11:15.719Z,13.25
2022-12-26T09:13:44.191Z,13.40
2022-12-26T09:16:15.548Z,13.25
2022-12-26T09:18:43.039Z,13.33
2022-12-26T09:21:12.613Z,13.30
2022-12-26T09:23:41.036Z,13.38
2022-12-26T09:26:12.760Z,12.84
2022-12-26T09:28:40.823Z,12.76
2022-12-26T09:31:11.628Z,13.23
2022-12-26T09:33:39.872Z,13.23
2022-12-26T09:36:14.291Z,12.41
2022-12-26T09:38:42.601Z,13.00
2022-12-26T09:41:26.008Z,13.37
2022-12-26T09:44:04.567Z,13.45
2022-12-26T09:46:35.835Z,13.64
2022-12-26T09:49:11.308Z,12.99
2022-12-26T09:51:41.061Z,13.30
2022-12-26T09:54:16.265Z,13.43
2022-12-26T09:57:03.507Z,13.34
2022-12-26T09:59:35.395Z,13.58
2022-12-26T10:02:02.981Z,13.48
2022-12-26T10:04:30.882Z,13.51
2022-12-26T10:07:08.207Z,12.67
2022-12-26T10:10:01.039Z,13.27
2022-12-26T10:12:43.584Z,13.35
2022-12-26T10:15:32.092Z,13.08
2022-12-26T10:18:12.363Z,12.28
2022-12-26T10:20:52.974Z,13.08
2022-12-26T10:23:33.093Z,13.34
2022-12-26T10:26:07.093Z,13.66
2022-12-26T10:28:40.232Z,13.20
2022-12-26T10:31:14.482Z,12.99
2022-12-26T10:33:47.145Z,13.43
2022-12-26T10:36:22.183Z,13.16
2022-12-26T10:38:51.905Z,13.45
2022-12-26T10:41:25.214Z,13.33
2022-12-26T10:43:54.268Z,12.70
2022-12-26T10:46:48.131Z,12.10
2022-12-26T10:49:19.413Z,13.00
2022-12-26T10:51:46.894Z,12.84
2022-12-26T10:54:18.040Z,13.14
2022-12-26T10:56:48.336Z,13.13
2022-12-26T10:59:19.960Z,13.46
2022-12-26T11:01:50.903Z,12.50
2022-12-26T11:04:44.563Z,12.86
2022-12-26T11:07:12.314Z,13.00
2022-12-26T11:09:42.657Z,13.25
2022-12-26T11:12:21.560Z,13.00
2022-12-26T11:14:51.408Z,13.03
2022-12-26T11:17:27.950Z,13.09
2022-12-26T11:20:22.387Z,12.31
2022-12-26T11:22:49.913Z,12.98
2022-12-26T11:25:20.934Z,13.24
2022-12-26T11:27:50.083Z,12.84
2022-12-26T11:30:25.315Z,13.26
2022-12-26T11:33:13.511Z,12.69
2022-12-26T11:35:49.599Z,12.80
2022-12-26T11:38:37.328Z,12.28
2022-12-26T11:41:30.163Z,12.73
2022-12-26T11:43:59.800Z,12.92
2022-12-26T11:46:36.520Z,13.31
2022-12-26T11:49:05.369Z,12.94
2022-12-26T11:51:35.600Z,13.30
2022-12-26T11:54:24.345Z,13.78
2022-12-26T11:57:02.878Z,13.43
2022-12-26T11:59:30.675Z,13.81
2022-12-26T12:02:22.196Z,13.65
2022-12-26T12:04:51.674Z,13.49
2022-12-26T12:07:32.991Z,13.14
2022-12-26T12:10:04.320Z,13.42
2022-12-26T12:12:42.237Z,12.95
2022-12-26T12:15:17.321Z,13.14
2022-12-26T12:18:03.568Z,13.37
2022-12-26T12:20:38.734Z,12.74
2022-12-26T12:23:20.760Z,13.07
2022-12-26T12:26:03.141Z,11.95
2022-12-26T12:28:59.202Z,12.63
2022-12-26T12:31:39.576Z,12.99
2022-12-26T12:34:20.727Z,12.79
2022-12-26T12:37:02.400Z,12.82
2022-12-26T12:39:45.612Z,12.42
2022-12-26T12:42:29.615Z,12.95
2022-12-26T12:45:18.047Z,13.13
2022-12-26T12:47:54.507Z,12.62
2022-12-26T12:50:29.578Z,13.09
2022-12-26T12:53:06.476Z,13.18
2022-12-26T12:55:44.571Z,12.30
2022-12-26T12:58:23.641Z,12.22
2022-12-26T13:00:56.087Z,12.82
2022-12-26T13:03:29.242Z,12.85
2022-12-26T13:06:07.473Z,13.43
2022-12-26T13:08:41.385Z,12.73
2022-12-26T13:11:14.639Z,13.14
2022-12-26T13:13:53.228Z,13.42
2022-12-26T13:16:28.218Z,13.27
2022-12-26T13:18:59.776Z,13.56
2022-12-26T13:21:32.093Z,13.60
2022-12-26T13:24:22.657Z,12.86
2022-12-26T13:26:55.542Z,13.07
2022-12-26T13:29:34.634Z,13.39
2022-12-26T13:32:04.468Z,13.08
2022-12-26T13:34:32.736Z,13.10
2022-12-26T13:37:01.915Z,13.07
2022-12-26T13:39:41.302Z,12.85
2022-12-26T13:42:51.138Z,12.66
2022-12-26T13:45:50.398Z,12.75
2022-12-26T13:48:56.990Z,12.19
2022-12-26T13:51:53.415Z,12.48
2022-12-26T13:54:24.388Z,13.00
2022-12-26T13:57:07.582Z,12.46
2022-12-26T13:59:40.981Z,13.14
2022-12-26T14:03:16.114Z,12.72
2022-12-26T14:05:37.124Z,12.62
2022-12-26T14:08:11.876Z,12.18
2022-12-26T14:10:54.387Z,12.71
2022-12-26T14:13:38.105Z,13.00
2022-12-26T14:16:15.284Z,12.50
2022-12-26T14:18:50.951Z,12.55
2022-12-26T14:21:34.281Z,12.85
2022-12-26T14:24:18.055Z,12.76
2022-12-26T14:26:52.838Z,12.34
2022-12-26T14:29:29.175Z,12.18
2022-12-26T14:32:11.707Z,11.76
2022-12-26T14:35:02.660Z,12.02
2022-12-26T14:37:42.412Z,12.57
2022-12-26T14:40:25.837Z,12.25
2022-12-26T14:43:11.314Z,12.31
2022-12-26T14:45:42.819Z,11.74
2022-12-26T14:48:43.700Z,11.64
2022-12-26T14:51:40.188Z,11.81
2022-12-26T14:54:26.106Z,12.09
2022-12-26T14:56:54.116Z,12.66
2022-12-26T14:59:29.926Z,12.31
2022-12-26T15:02:31.196Z,12.52
2022-12-26T15:05:11.576Z,12.60
2022-12-26T15:08:10.838Z,12.73
2022-12-26T15:11:19.529Z,12.72
2022-12-26T15:14:13.097Z,12.89
2022-12-26T15:16:57.969Z,12.64
2022-12-26T15:19:46.699Z,12.90
2022-12-26T15:22:55.410Z,13.01
2022-12-26T15:25:55.654Z,12.95
2022-12-26T15:28:41.476Z,12.99
2022-12-26T15:31:25.954Z,12.88
2022-12-26T15:34:03.518Z,12.16
2022-12-26T15:36:43.179Z,12.61
2022-12-26T15:39:22.588Z,12.25
2022-12-26T15:41:58.442Z,12.46
2022-12-26T15:44:31.571Z,12.53
2022-12-26T15:47:15.056Z,12.85
2022-12-26T15:49:57.395Z,12.14
2022-12-26T15:52:37.909Z,12.54
2022-12-26T15:55:21.844Z,12.69
2022-12-26T15:57:56.610Z,12.70
2022-12-26T16:00:25.542Z,12.77
2022-12-26T16:03:11.538Z,12.79
2022-12-26T16:05:53.703Z,12.65
2022-12-26T16:08:51.633Z,12.63
2022-12-26T16:11:21.734Z,12.64
2022-12-26T16:14:01.053Z,12.31
2022-12-26T16:16:34.662Z,12.73
2022-12-26T16:19:19.313Z,12.28
2022-12-26T16:22:09.658Z,12.62
2022-12-26T16:24:39.529Z,12.88
2022-12-26T16:27:09.702Z,12.64
2022-12-26T16:29:45.787Z,12.69
2022-12-26T16:32:18.977Z,12.94
2022-12-26T16:34:47.630Z,12.23
2022-12-26T16:37:20.646Z,12.88
2022-12-26T16:40:07.396Z,12.32
2022-12-26T16:42:35.371Z,12.68
2022-12-26T16:45:03.569Z,12.69
2022-12-26T16:47:33.603Z,12.42
2022-12-26T16:50:01.371Z,11.92
2022-12-26T16:52:34.461Z,12.02
2022-12-26T16:55:25.971Z,12.37
2022-12-26T16:57:56.480Z,11.85
2022-12-26T17:00:25.139Z,11.25
2022-12-26T17:02:55.861Z,11.77
2022-12-26T17:05:27.943Z,12.29
2022-12-26T17:07:59.347Z,11.64
2022-12-26T17:10:29.660Z,11.55
2022-12-26T17:13:00.577Z,12.17
2022-12-26T17:15:30.756Z,11.96
2022-12-26T17:17:59.790Z,12.30
2022-12-26T17:20:38.955Z,12.67
2022-12-26T17:23:37.097Z,11.90
2022-12-26T17:26:23.676Z,11.95
2022-12-26T17:28:51.666Z,12.18
2022-12-26T17:31:24.775Z,11.80
2022-12-26T17:33:56.078Z,11.90
2022-12-26T17:39:22.181Z,11.53
2022-12-26T17:41:55.630Z,11.35
2022-12-26T17:44:40.985Z,11.46
2022-12-26T17:47:17.840Z,11.55
2022-12-26T17:49:45.362Z,11.20
2022-12-26T17:52:14.841Z,11.13
2022-12-26T17:54:43.643Z,11.25
2022-12-26T17:57:18.709Z,11.76
2022-12-26T17:59:46.328Z,11.39
2022-12-26T18:02:13.976Z,11.55
2022-12-26T18:04:41.734Z,11.15
2022-12-26T18:07:13.198Z,11.07
2022-12-26T18:09:40.778Z,10.35
2022-12-26T18:12:11.503Z,10.76
2022-12-26T18:14:38.984Z,10.89
2022-12-26T18:17:06.741Z,10.80
2022-12-26T18:19:34.914Z,10.45
2022-12-26T18:22:02.912Z,10.78
2022-12-26T18:24:31.058Z,10.62
2022-12-26T18:26:58.819Z,10.65
2022-12-26T18:29:27.589Z,10.27
2022-12-26T18:31:55.112Z,10.13
2022-12-26T18:34:22.533Z,10.09
2022-12-26T18:36:50.289Z,10.15
2022-12-26T18:39:18.296Z,9.89
2022-12-26T18:41:45.935Z,10.02
2022-12-26T18:44:15.645Z,9.78
2022-12-26T18:46:44.503Z,9.82
2022-12-26T18:49:12.013Z,9.59
2022-12-26T18:51:39.449Z,9.37
2022-12-26T18:54:07.027Z,9.35
2022-12-26T18:56:34.422Z,9.38
2022-12-26T18:59:01.888Z,9.41
2022-12-26T19:01:29.414Z,9.34
2022-12-26T19:03:58.401Z,10.07
2022-12-26T19:06:27.770Z,9.72
2022-12-26T19:08:55.982Z,9.50
2022-12-26T19:11:24.229Z,9.62
2022-12-26T19:13:52.718Z,9.22
2022-12-26T19:16:22.915Z,9.05
2022-12-26T19:18:50.763Z,9.12
2022-12-26T19:21:19.553Z,9.04
2022-12-26T19:23:48.342Z,8.87
2022-12-26T19:26:18.532Z,8.82
2022-12-26T19:28:50.908Z,8.92
2022-12-26T19:31:18.420Z,8.77
2022-12-26T19:33:45.934Z,8.67
2022-12-26T19:36:13.934Z,8.70
2022-12-26T19:38:42.969Z,8.52
2022-12-26T19:41:12.338Z,8.55
2022-12-26T19:43:39.950Z,8.55
2022-12-26T19:46:09.616Z,8.33
2022-12-26T19:48:38.735Z,8.37
2022-12-26T19:51:09.090Z,8.33
2022-12-26T19:53:37.983Z,8.51
2022-12-26T19:56:09.407Z,8.83
2022-12-26T19:58:37.067Z,8.69
2022-12-26T20:01:08.741Z,9.15
2022-12-26T20:03:36.945Z,9.87
2022-12-26T20:06:09.951Z,10.83
2022-12-26T20:11:22.890Z,13.09
2022-12-26T20:13:50.987Z,13.80
2022-12-26T20:17:04.304Z,14.13
2022-12-26T20:19:19.995Z,14.18
2022-12-26T20:21:48.086Z,13.41
2022-12-26T20:24:16.352Z,14.11
2022-12-26T20:26:45.538Z,13.70
2022-12-26T20:29:13.231Z,12.18
2022-12-26T20:31:42.563Z,10.07
2022-12-26T20:34:11.248Z,9.38
2022-12-26T20:36:40.086Z,9.15
2022-12-26T20:39:11.199Z,9.12
2022-12-26T20:41:39.158Z,9.03
2022-12-26T20:44:08.083Z,8.60
2022-12-26T20:46:36.212Z,8.76
2022-12-26T20:49:05.396Z,8.28
2022-12-26T20:51:37.971Z,8.18
2022-12-26T20:54:06.170Z,8.38
2022-12-26T20:56:37.598Z,8.53
2022-12-26T20:59:05.484Z,8.48
2022-12-26T21:01:35.218Z,8.74
2022-12-26T21:04:02.890Z,8.71
2022-12-26T21:06:32.344Z,8.27
2022-12-26T21:09:00.139Z,7.90
2022-12-26T21:11:29.460Z,7.87
2022-12-26T21:13:58.400Z,7.97
2022-12-26T21:16:29.993Z,7.96
2022-12-26T21:18:59.486Z,7.89
2022-12-26T21:21:28.884Z,7.97
2022-12-26T21:23:59.892Z,8.16
2022-12-26T21:26:28.213Z,7.88
2022-12-26T21:28:57.463Z,7.66
2022-12-26T21:31:25.277Z,7.73
2022-12-26T21:33:55.348Z,7.89
2022-12-26T21:36:24.324Z,7.99
2022-12-26T21:38:54.677Z,7.95
2022-12-26T21:41:22.995Z,8.04
2022-12-26T21:43:50.887Z,8.10
2022-12-26T21:46:20.769Z,8.47
2022-12-26T21:48:52.323Z,8.18
2022-12-26T21:51:21.721Z,8.32
2022-12-26T21:53:50.515Z,8.79
2022-12-26T21:56:17.897Z,7.98
2022-12-26T21:59:03.653Z,7.87
2022-12-26T22:01:31.841Z,7.88
2022-12-26T22:04:16.878Z,8.42
2022-12-26T22:06:44.366Z,7.89
2022-12-26T22:09:15.649Z,7.90
2022-12-26T22:12:03.997Z,8.20
2022-12-26T22:14:34.198Z,7.88
2022-12-26T22:17:01.605Z,7.94
2022-12-26T22:19:29.265Z,8.19
2022-12-26T22:21:56.784Z,8.35
2022-12-26T22:24:25.570Z,8.92
2022-12-26T22:26:53.535Z,9.39
2022-12-26T22:29:20.977Z,9.15
2022-12-26T22:31:48.421Z,9.27
2022-12-26T22:34:17.096Z,9.47
2022-12-26T22:36:44.700Z,9.12
2022-12-26T22:39:17.457Z,9.76
2022-12-26T22:41:47.557Z,9.60
2022-12-26T22:44:15.598Z,9.27
2022-12-26T22:46:43.790Z,9.81
2022-12-26T22:49:11.590Z,9.89
2022-12-26T22:51:39.350Z,9.91
2022-12-26T22:54:06.879Z,9.73
2022-12-26T22:56:34.838Z,9.69
2022-12-26T22:59:03.825Z,9.75
2022-12-26T23:01:31.635Z,9.36
2022-12-26T23:04:03.942Z,9.39
2022-12-26T23:06:33.818Z,9.70
2022-12-26T23:09:03.952Z,9.64
2022-12-26T23:11:35.302Z,9.19
2022-12-26T23:14:06.243Z,9.36
2022-12-26T23:16:39.424Z,9.48
2022-12-26T23:19:32.772Z,9.70
2022-12-26T23:22:02.358Z,9.45
2022-12-26T23:24:32.154Z,9.67
2022-12-26T23:27:17.417Z,9.70
2022-12-26T23:30:04.501Z,9.18
2022-12-26T23:32:32.084Z,9.39
2022-12-26T23:34:59.503Z,9.24
2022-12-26T23:37:27.052Z,9.40
2022-12-26T23:39:54.541Z,9.16
2022-12-26T23:42:21.985Z,9.35
2022-12-26T23:44:50.731Z,9.27
2022-12-26T23:47:18.168Z,9.08
2022-12-26T23:49:45.621Z,9.02
2022-12-26T23:52:13.053Z,9.28
2022-12-26T23:54:40.492Z,8.77
2022-12-26T23:57:07.947Z,8.50
2022-12-26T23:59:35.399Z,9.29
